sensor_id;sensor_type;location;lat;lon;timestamp;temperature;humidity
45715;DHT22;31430;61.646;24.704;2023-03-31T00:02:04;-16.40;99.90
45715;DHT22;31430;61.646;24.704;2023-03-31T00:04:41;-16.50;99.90
45715;DHT22;31430;61.646;24.704;2023-03-31T00:07:14;-16.70;99.90
45715;DHT22;31430;61.646;24.704;2023-03-31T00:09:41;-16.80;99.90
45715;DHT22;31430;61.646;24.704;2023-03-31T00:12:11;-17.00;99.90
45715;DHT22;31430;61.646;24.704;2023-03-31T00:14:37;-17.10;99.90
45715;DHT22;31430;61.646;24.704;2023-03-31T00:17:03;-17.30;99.90
45715;DHT22;31430;61.646;24.704;2023-03-31T00:19:29;-17.50;99.90
45715;DHT22;31430;61.646;24.704;2023-03-31T00:21:58;-17.50;99.90
45715;DHT22;31430;61.646;24.704;2023-03-31T00:24:30;-17.40;99.90
45715;DHT22;31430;61.646;24.704;2023-03-31T00:27:01;-17.30;99.90
45715;DHT22;31430;61.646;24.704;2023-03-31T00:29:27;-17.40;99.90
45715;DHT22;31430;61.646;24.704;2023-03-31T00:31:53;-17.40;99.90
45715;DHT22;31430;61.646;24.704;2023-03-31T00:34:20;-17.30;99.90
45715;DHT22;31430;61.646;24.704;2023-03-31T00:36:46;-17.20;99.90
45715;DHT22;31430;61.646;24.704;2023-03-31T00:39:14;-17.20;99.90
45715;DHT22;31430;61.646;24.704;2023-03-31T00:41:40;-17.50;99.90
45715;DHT22;31430;61.646;24.704;2023-03-31T00:46:43;-17.50;99.90
45715;DHT22;31430;61.646;24.704;2023-03-31T00:49:15;-17.70;99.90
45715;DHT22;31430;61.646;24.704;2023-03-31T00:51:46;-17.90;99.90
45715;DHT22;31430;61.646;24.704;2023-03-31T00:54:13;-18.00;99.90
45715;DHT22;31430;61.646;24.704;2023-03-31T00:56:43;-17.70;99.90
45715;DHT22;31430;61.646;24.704;2023-03-31T00:59:13;-17.60;99.90
45715;DHT22;31430;61.646;24.704;2023-03-31T01:01:41;-17.90;99.90
45715;DHT22;31430;61.646;24.704;2023-03-31T01:04:11;-18.00;99.90
45715;DHT22;31430;61.646;24.704;2023-03-31T01:06:49;-18.00;99.90
45715;DHT22;31430;61.646;24.704;2023-03-31T01:09:17;-18.20;99.90
45715;DHT22;31430;61.646;24.704;2023-03-31T01:11:44;-18.20;99.90
45715;DHT22;31430;61.646;24.704;2023-03-31T01:14:11;-18.30;99.90
45715;DHT22;31430;61.646;24.704;2023-03-31T01:16:37;-18.70;99.90
45715;DHT22;31430;61.646;24.704;2023-03-31T01:19:07;-18.60;99.90
45715;DHT22;31430;61.646;24.704;2023-03-31T01:24:41;-18.20;99.90
45715;DHT22;31430;61.646;24.704;2023-03-31T01:33:19;-18.10;99.90
45715;DHT22;31430;61.646;24.704;2023-03-31T01:46:55;-18.40;99.90
45715;DHT22;31430;61.646;24.704;2023-03-31T01:49:47;-18.40;99.90
45715;DHT22;31430;61.646;24.704;2023-03-31T01:52:23;-18.30;99.90
45715;DHT22;31430;61.646;24.704;2023-03-31T01:54:53;-18.30;99.90
45715;DHT22;31430;61.646;24.704;2023-03-31T01:57:27;-18.50;99.90
45715;DHT22;31430;61.646;24.704;2023-03-31T02:00:07;-18.50;99.90
45715;DHT22;31430;61.646;24.704;2023-03-31T02:05:19;-18.50;99.90
45715;DHT22;31430;61.646;24.704;2023-03-31T02:07:54;-18.30;99.90
45715;DHT22;31430;61.646;24.704;2023-03-31T02:10:22;-18.50;99.90
45715;DHT22;31430;61.646;24.704;2023-03-31T02:12:49;-18.40;99.90
45715;DHT22;31430;61.646;24.704;2023-03-31T02:15:23;-18.70;99.90
45715;DHT22;31430;61.646;24.704;2023-03-31T02:17:55;-18.90;99.90
45715;DHT22;31430;61.646;24.704;2023-03-31T02:20:22;-19.00;99.90
45715;DHT22;31430;61.646;24.704;2023-03-31T02:22:52;-19.10;99.90
45715;DHT22;31430;61.646;24.704;2023-03-31T02:25:22;-19.20;99.90
45715;DHT22;31430;61.646;24.704;2023-03-31T02:27:54;-19.50;99.90
45715;DHT22;31430;61.646;24.704;2023-03-31T02:30:24;-19.30;99.90
45715;DHT22;31430;61.646;24.704;2023-03-31T02:32:54;-19.20;99.90
45715;DHT22;31430;61.646;24.704;2023-03-31T02:35:20;-19.20;99.90
45715;DHT22;31430;61.646;24.704;2023-03-31T02:37:48;-19.10;99.90
45715;DHT22;31430;61.646;24.704;2023-03-31T02:40:20;-19.20;99.90
45715;DHT22;31430;61.646;24.704;2023-03-31T02:42:47;-19.30;99.90
45715;DHT22;31430;61.646;24.704;2023-03-31T02:45:42;-19.30;99.90
45715;DHT22;31430;61.646;24.704;2023-03-31T02:48:36;-19.30;99.90
45715;DHT22;31430;61.646;24.704;2023-03-31T02:51:29;-19.60;99.90
45715;DHT22;31430;61.646;24.704;2023-03-31T03:13:46;-19.30;99.90
45715;DHT22;31430;61.646;24.704;2023-03-31T03:16:33;-19.50;99.90
45715;DHT22;31430;61.646;24.704;2023-03-31T03:19:05;-19.20;99.90
45715;DHT22;31430;61.646;24.704;2023-03-31T03:21:31;-19.40;99.90
45715;DHT22;31430;61.646;24.704;2023-03-31T03:23:58;-19.80;99.90
45715;DHT22;31430;61.646;24.704;2023-03-31T03:26:25;-19.80;99.90
45715;DHT22;31430;61.646;24.704;2023-03-31T03:28:56;-19.90;99.90
45715;DHT22;31430;61.646;24.704;2023-03-31T03:31:22;-19.90;99.90
45715;DHT22;31430;61.646;24.704;2023-03-31T03:33:50;-19.80;99.90
45715;DHT22;31430;61.646;24.704;2023-03-31T03:36:16;-20.00;99.90
45715;DHT22;31430;61.646;24.704;2023-03-31T03:38:41;-19.90;99.90
45715;DHT22;31430;61.646;24.704;2023-03-31T03:41:08;-19.80;99.90
45715;DHT22;31430;61.646;24.704;2023-03-31T03:43:34;-19.80;99.90
45715;DHT22;31430;61.646;24.704;2023-03-31T03:46:00;-19.80;99.90
45715;DHT22;31430;61.646;24.704;2023-03-31T03:48:26;-20.00;99.90
45715;DHT22;31430;61.646;24.704;2023-03-31T03:50:52;-20.10;99.90
45715;DHT22;31430;61.646;24.704;2023-03-31T03:53:19;-19.80;99.90
45715;DHT22;31430;61.646;24.704;2023-03-31T03:55:45;-19.80;99.90
45715;DHT22;31430;61.646;24.704;2023-03-31T03:58:13;-19.90;99.90
45715;DHT22;31430;61.646;24.704;2023-03-31T04:00:39;-19.80;99.90
45715;DHT22;31430;61.646;24.704;2023-03-31T04:03:05;-19.90;99.90
45715;DHT22;31430;61.646;24.704;2023-03-31T04:05:30;-20.00;99.90
45715;DHT22;31430;61.646;24.704;2023-03-31T04:07:56;-20.20;99.90
45715;DHT22;31430;61.646;24.704;2023-03-31T04:10:22;-20.00;99.90
45715;DHT22;31430;61.646;24.704;2023-03-31T04:12:47;-20.00;99.90
45715;DHT22;31430;61.646;24.704;2023-03-31T04:15:13;-20.20;99.90
45715;DHT22;31430;61.646;24.704;2023-03-31T04:17:39;-20.50;99.90
45715;DHT22;31430;61.646;24.704;2023-03-31T04:20:07;-20.60;99.90
45715;DHT22;31430;61.646;24.704;2023-03-31T04:22:35;-20.10;99.90
45715;DHT22;31430;61.646;24.704;2023-03-31T04:25:06;-19.70;99.90
45715;DHT22;31430;61.646;24.704;2023-03-31T04:27:44;-19.50;99.90
45715;DHT22;31430;61.646;24.704;2023-03-31T04:30:24;-19.50;99.90
45715;DHT22;31430;61.646;24.704;2023-03-31T04:33:01;-19.30;99.90
45715;DHT22;31430;61.646;24.704;2023-03-31T04:35:29;-19.60;99.90
45715;DHT22;31430;61.646;24.704;2023-03-31T04:38:27;-19.70;99.90
45715;DHT22;31430;61.646;24.704;2023-03-31T04:40:58;-19.40;98.70
45715;DHT22;31430;61.646;24.704;2023-03-31T04:43:24;-19.20;98.10
45715;DHT22;31430;61.646;24.704;2023-03-31T04:45:50;-19.10;99.10
45715;DHT22;31430;61.646;24.704;2023-03-31T04:48:16;-19.00;99.90
45715;DHT22;31430;61.646;24.704;2023-03-31T04:50:42;-18.90;99.50
45715;DHT22;31430;61.646;24.704;2023-03-31T04:53:08;-18.50;98.40
45715;DHT22;31430;61.646;24.704;2023-03-31T04:55:33;-18.30;96.90
45715;DHT22;31430;61.646;24.704;2023-03-31T04:58:00;-18.30;95.80
45715;DHT22;31430;61.646;24.704;2023-03-31T05:00:25;-18.20;97.50
45715;DHT22;31430;61.646;24.704;2023-03-31T05:02:53;-18.20;97.60
45715;DHT22;31430;61.646;24.704;2023-03-31T05:05:18;-18.30;97.30
45715;DHT22;31430;61.646;24.704;2023-03-31T05:07:44;-18.40;98.50
45715;DHT22;31430;61.646;24.704;2023-03-31T05:10:10;-18.30;99.90
45715;DHT22;31430;61.646;24.704;2023-03-31T05:12:37;-18.00;99.60
45715;DHT22;31430;61.646;24.704;2023-03-31T05:15:04;-18.20;99.90
45715;DHT22;31430;61.646;24.704;2023-03-31T05:17:34;-18.20;97.00
45715;DHT22;31430;61.646;24.704;2023-03-31T05:20:00;-18.70;96.90
45715;DHT22;31430;61.646;24.704;2023-03-31T05:22:26;-18.60;97.60
45715;DHT22;31430;61.646;24.704;2023-03-31T05:24:52;-18.20;99.90
45715;DHT22;31430;61.646;24.704;2023-03-31T05:27:18;-17.80;99.90
45715;DHT22;31430;61.646;24.704;2023-03-31T05:29:46;-17.70;99.00
45715;DHT22;31430;61.646;24.704;2023-03-31T05:32:12;-17.70;99.90
45715;DHT22;31430;61.646;24.704;2023-03-31T05:34:37;-17.40;99.90
45715;DHT22;31430;61.646;24.704;2023-03-31T05:37:03;-17.20;99.90
45715;DHT22;31430;61.646;24.704;2023-03-31T05:39:29;-16.90;99.90
45715;DHT22;31430;61.646;24.704;2023-03-31T05:42:00;-16.80;99.30
45715;DHT22;31430;61.646;24.704;2023-03-31T05:44:26;-16.80;95.70
45715;DHT22;31430;61.646;24.704;2023-03-31T05:46:52;-17.20;97.50
45715;DHT22;31430;61.646;24.704;2023-03-31T05:49:18;-17.30;99.90
45715;DHT22;31430;61.646;24.704;2023-03-31T05:51:44;-17.10;99.90
45715;DHT22;31430;61.646;24.704;2023-03-31T05:54:11;-16.60;99.90
45715;DHT22;31430;61.646;24.704;2023-03-31T05:56:36;-16.30;99.90
45715;DHT22;31430;61.646;24.704;2023-03-31T05:59:02;-15.90;99.90
45715;DHT22;31430;61.646;24.704;2023-03-31T06:01:28;-15.60;99.90
45715;DHT22;31430;61.646;24.704;2023-03-31T06:03:54;-15.40;99.90
45715;DHT22;31430;61.646;24.704;2023-03-31T06:06:20;-15.50;99.90
45715;DHT22;31430;61.646;24.704;2023-03-31T06:08:47;-15.50;99.70
45715;DHT22;31430;61.646;24.704;2023-03-31T06:11:15;-15.30;99.90
45715;DHT22;31430;61.646;24.704;2023-03-31T06:13:43;-15.30;99.90
45715;DHT22;31430;61.646;24.704;2023-03-31T06:16:11;-15.30;99.90
45715;DHT22;31430;61.646;24.704;2023-03-31T06:18:38;-14.90;99.90
45715;DHT22;31430;61.646;24.704;2023-03-31T06:21:04;-14.70;99.90
45715;DHT22;31430;61.646;24.704;2023-03-31T06:23:30;-14.50;99.90
45715;DHT22;31430;61.646;24.704;2023-03-31T06:26:03;-14.40;98.90
45715;DHT22;31430;61.646;24.704;2023-03-31T06:28:30;-14.30;97.20
45715;DHT22;31430;61.646;24.704;2023-03-31T06:31:00;-14.30;98.40
45715;DHT22;31430;61.646;24.704;2023-03-31T06:33:26;-14.10;99.00
45715;DHT22;31430;61.646;24.704;2023-03-31T06:35:55;-13.90;99.90
45715;DHT22;31430;61.646;24.704;2023-03-31T06:38:21;-13.80;99.90
45715;DHT22;31430;61.646;24.704;2023-03-31T06:40:46;-13.70;99.90
45715;DHT22;31430;61.646;24.704;2023-03-31T06:43:12;-13.50;99.90
45715;DHT22;31430;61.646;24.704;2023-03-31T06:45:38;-13.40;99.90
45715;DHT22;31430;61.646;24.704;2023-03-31T06:48:04;-13.20;99.90
45715;DHT22;31430;61.646;24.704;2023-03-31T06:50:30;-13.00;99.90
45715;DHT22;31430;61.646;24.704;2023-03-31T06:52:56;-12.70;99.90
45715;DHT22;31430;61.646;24.704;2023-03-31T06:55:21;-12.60;99.90
45715;DHT22;31430;61.646;24.704;2023-03-31T06:57:47;-12.50;99.90
45715;DHT22;31430;61.646;24.704;2023-03-31T07:00:13;-12.20;99.90
45715;DHT22;31430;61.646;24.704;2023-03-31T07:02:39;-12.00;99.90
45715;DHT22;31430;61.646;24.704;2023-03-31T07:05:05;-11.80;99.90
45715;DHT22;31430;61.646;24.704;2023-03-31T07:07:32;-11.60;99.90
45715;DHT22;31430;61.646;24.704;2023-03-31T07:09:58;-11.40;99.90
45715;DHT22;31430;61.646;24.704;2023-03-31T07:12:23;-11.10;99.90
45715;DHT22;31430;61.646;24.704;2023-03-31T07:14:49;-11.10;99.90
45715;DHT22;31430;61.646;24.704;2023-03-31T07:17:16;-10.80;99.90
45715;DHT22;31430;61.646;24.704;2023-03-31T07:19:42;-10.60;99.90
45715;DHT22;31430;61.646;24.704;2023-03-31T07:22:12;-10.60;99.90
45715;DHT22;31430;61.646;24.704;2023-03-31T07:24:39;-10.50;99.90
45715;DHT22;31430;61.646;24.704;2023-03-31T07:27:04;-10.20;99.90
45715;DHT22;31430;61.646;24.704;2023-03-31T07:29:30;-9.90;99.90
45715;DHT22;31430;61.646;24.704;2023-03-31T07:31:56;-9.70;99.90
45715;DHT22;31430;61.646;24.704;2023-03-31T07:34:22;-9.60;99.60
45715;DHT22;31430;61.646;24.704;2023-03-31T07:36:48;-9.40;98.50
45715;DHT22;31430;61.646;24.704;2023-03-31T07:39:13;-9.20;99.90
45715;DHT22;31430;61.646;24.704;2023-03-31T07:41:39;-9.00;99.90
45715;DHT22;31430;61.646;24.704;2023-03-31T07:44:05;-8.70;99.20
45715;DHT22;31430;61.646;24.704;2023-03-31T07:46:31;-8.40;98.00
45715;DHT22;31430;61.646;24.704;2023-03-31T07:48:56;-8.20;96.30
45715;DHT22;31430;61.646;24.704;2023-03-31T07:51:25;-8.20;95.50
45715;DHT22;31430;61.646;24.704;2023-03-31T07:53:51;-8.00;94.00
45715;DHT22;31430;61.646;24.704;2023-03-31T07:56:19;-7.80;93.00
45715;DHT22;31430;61.646;24.704;2023-03-31T07:58:46;-7.60;91.80
45715;DHT22;31430;61.646;24.704;2023-03-31T08:01:16;-7.60;91.10
45715;DHT22;31430;61.646;24.704;2023-03-31T08:03:42;-7.30;90.50
45715;DHT22;31430;61.646;24.704;2023-03-31T08:06:08;-7.20;89.30
45715;DHT22;31430;61.646;24.704;2023-03-31T08:08:37;-7.00;88.00
45715;DHT22;31430;61.646;24.704;2023-03-31T08:11:07;-6.90;86.20
45715;DHT22;31430;61.646;24.704;2023-03-31T08:13:33;-6.70;85.90
45715;DHT22;31430;61.646;24.704;2023-03-31T08:15:59;-6.60;85.80
45715;DHT22;31430;61.646;24.704;2023-03-31T08:18:25;-6.60;88.80
45715;DHT22;31430;61.646;24.704;2023-03-31T08:20:50;-6.30;86.80
45715;DHT22;31430;61.646;24.704;2023-03-31T08:23:16;-6.10;85.30
45715;DHT22;31430;61.646;24.704;2023-03-31T08:25:42;-5.90;83.90
45715;DHT22;31430;61.646;24.704;2023-03-31T08:28:07;-5.70;83.10
45715;DHT22;31430;61.646;24.704;2023-03-31T08:30:39;-5.60;83.70
45715;DHT22;31430;61.646;24.704;2023-03-31T08:33:05;-5.40;81.60
45715;DHT22;31430;61.646;24.704;2023-03-31T08:35:33;-5.20;81.50
45715;DHT22;31430;61.646;24.704;2023-03-31T08:37:58;-5.00;80.30
45715;DHT22;31430;61.646;24.704;2023-03-31T08:40:27;-4.90;79.60
45715;DHT22;31430;61.646;24.704;2023-03-31T08:45:31;-4.60;77.80
45715;DHT22;31430;61.646;24.704;2023-03-31T08:48:19;-4.40;77.00
45715;DHT22;31430;61.646;24.704;2023-03-31T08:50:51;-4.30;76.70
45715;DHT22;31430;61.646;24.704;2023-03-31T08:53:25;-4.30;75.80
45715;DHT22;31430;61.646;24.704;2023-03-31T08:55:53;-4.10;76.10
45715;DHT22;31430;61.646;24.704;2023-03-31T09:06:40;-3.40;73.50
45715;DHT22;31430;61.646;24.704;2023-03-31T09:09:23;-3.20;73.10
45715;DHT22;31430;61.646;24.704;2023-03-31T09:11:54;-2.90;71.90
45715;DHT22;31430;61.646;24.704;2023-03-31T09:14:29;-2.80;70.20
45715;DHT22;31430;61.646;24.704;2023-03-31T09:19:51;-2.70;70.70
45715;DHT22;31430;61.646;24.704;2023-03-31T09:22:22;-2.50;70.40
45715;DHT22;31430;61.646;24.704;2023-03-31T09:25:04;-2.30;70.20
45715;DHT22;31430;61.646;24.704;2023-03-31T09:27:33;-2.40;69.50
45715;DHT22;31430;61.646;24.704;2023-03-31T09:32:40;-2.30;64.90
45715;DHT22;31430;61.646;24.704;2023-03-31T09:35:36;-2.50;67.80
45715;DHT22;31430;61.646;24.704;2023-03-31T09:38:02;-2.20;69.20
45715;DHT22;31430;61.646;24.704;2023-03-31T09:40:28;-2.40;66.30
45715;DHT22;31430;61.646;24.704;2023-03-31T09:43:05;-2.40;66.50
45715;DHT22;31430;61.646;24.704;2023-03-31T09:45:33;-2.40;65.70
45715;DHT22;31430;61.646;24.704;2023-03-31T09:48:10;-2.30;66.60
45715;DHT22;31430;61.646;24.704;2023-03-31T09:50:42;-2.30;65.80
45715;DHT22;31430;61.646;24.704;2023-03-31T09:53:19;-2.30;65.10
45715;DHT22;31430;61.646;24.704;2023-03-31T09:55:52;-2.30;64.20
45715;DHT22;31430;61.646;24.704;2023-03-31T09:58:18;-2.10;65.10
45715;DHT22;31430;61.646;24.704;2023-03-31T10:01:16;-2.00;64.50
45715;DHT22;31430;61.646;24.704;2023-03-31T10:03:54;-2.00;63.50
45715;DHT22;31430;61.646;24.704;2023-03-31T10:06:22;-1.80;63.90
45715;DHT22;31430;61.646;24.704;2023-03-31T10:08:58;-1.80;61.50
45715;DHT22;31430;61.646;24.704;2023-03-31T10:11:25;-1.90;62.60
45715;DHT22;31430;61.646;24.704;2023-03-31T10:17:03;-1.80;63.00
45715;DHT22;31430;61.646;24.704;2023-03-31T10:19:35;-1.80;62.70
45715;DHT22;31430;61.646;24.704;2023-03-31T10:22:13;-1.80;63.40
45715;DHT22;31430;61.646;24.704;2023-03-31T10:24:44;-1.60;62.20
45715;DHT22;31430;61.646;24.704;2023-03-31T10:27:28;-1.60;62.00
45715;DHT22;31430;61.646;24.704;2023-03-31T10:29:57;-1.50;62.20
45715;DHT22;31430;61.646;24.704;2023-03-31T10:32:26;-1.40;63.50
45715;DHT22;31430;61.646;24.704;2023-03-31T10:34:58;-1.40;60.20
45715;DHT22;31430;61.646;24.704;2023-03-31T10:37:28;-1.50;60.80
45715;DHT22;31430;61.646;24.704;2023-03-31T10:40:02;-1.40;61.40
45715;DHT22;31430;61.646;24.704;2023-03-31T10:42:30;-1.20;62.50
45715;DHT22;31430;61.646;24.704;2023-03-31T10:45:30;-1.10;61.70
45715;DHT22;31430;61.646;24.704;2023-03-31T10:48:00;-1.00;61.20
45715;DHT22;31430;61.646;24.704;2023-03-31T10:50:35;-1.00;61.60
45715;DHT22;31430;61.646;24.704;2023-03-31T10:53:13;-0.90;59.40
45715;DHT22;31430;61.646;24.704;2023-03-31T10:56:06;-1.00;63.40
45715;DHT22;31430;61.646;24.704;2023-03-31T11:10:08;-0.50;59.90
45715;DHT22;31430;61.646;24.704;2023-03-31T11:15:46;-0.40;59.40
45715;DHT22;31430;61.646;24.704;2023-03-31T11:21:44;-0.40;59.90
45715;DHT22;31430;61.646;24.704;2023-03-31T11:37:46;0.00;60.40
45715;DHT22;31430;61.646;24.704;2023-03-31T11:41:21;0.20;55.80
45715;DHT22;31430;61.646;24.704;2023-03-31T11:43:33;0.30;53.30
45715;DHT22;31430;61.646;24.704;2023-03-31T11:51:26;0.40;57.30
45715;DHT22;31430;61.646;24.704;2023-03-31T11:53:54;0.40;57.90
45715;DHT22;31430;61.646;24.704;2023-03-31T11:56:22;0.70;58.40
45715;DHT22;31430;61.646;24.704;2023-03-31T11:58:53;0.80;57.10
45715;DHT22;31430;61.646;24.704;2023-03-31T12:01:24;1.10;57.00
45715;DHT22;31430;61.646;24.704;2023-03-31T12:06:33;0.80;56.30
45715;DHT22;31430;61.646;24.704;2023-03-31T12:09:18;0.80;57.00
45715;DHT22;31430;61.646;24.704;2023-03-31T12:11:55;0.90;57.40
45715;DHT22;31430;61.646;24.704;2023-03-31T12:16:51;0.80;57.90
45715;DHT22;31430;61.646;24.704;2023-03-31T12:19:26;0.50;57.70
45715;DHT22;31430;61.646;24.704;2023-03-31T12:22:04;0.40;58.50
45715;DHT22;31430;61.646;24.704;2023-03-31T12:24:33;0.40;55.40
45715;DHT22;31430;61.646;24.704;2023-03-31T12:27:50;0.80;57.00
45715;DHT22;31430;61.646;24.704;2023-03-31T12:30:04;1.00;56.40
45715;DHT22;31430;61.646;24.704;2023-03-31T12:32:41;1.20;58.80
45715;DHT22;31430;61.646;24.704;2023-03-31T12:35:21;1.10;58.90
45715;DHT22;31430;61.646;24.704;2023-03-31T12:40:57;1.10;56.70
45715;DHT22;31430;61.646;24.704;2023-03-31T12:43:51;1.10;56.00
45715;DHT22;31430;61.646;24.704;2023-03-31T12:51:47;1.60;54.10
45715;DHT22;31430;61.646;24.704;2023-03-31T13:02:22;1.10;57.40
45715;DHT22;31430;61.646;24.704;2023-03-31T13:04:48;1.30;56.90
45715;DHT22;31430;61.646;24.704;2023-03-31T13:09:49;1.20;58.80
45715;DHT22;31430;61.646;24.704;2023-03-31T13:12:22;1.30;55.10
45715;DHT22;31430;61.646;24.704;2023-03-31T13:14:51;1.50;55.10
45715;DHT22;31430;61.646;24.704;2023-03-31T13:19:48;1.40;56.30
45715;DHT22;31430;61.646;24.704;2023-03-31T13:28:44;1.80;54.50
45715;DHT22;31430;61.646;24.704;2023-03-31T13:31:14;1.70;55.60
45715;DHT22;31430;61.646;24.704;2023-03-31T13:33:52;1.70;55.40
45715;DHT22;31430;61.646;24.704;2023-03-31T13:42:39;1.70;50.50
45715;DHT22;31430;61.646;24.704;2023-03-31T13:47:55;2.00;50.40
45715;DHT22;31430;61.646;24.704;2023-03-31T14:01:54;1.80;53.00
45715;DHT22;31430;61.646;24.704;2023-03-31T14:12:48;1.80;55.40
45715;DHT22;31430;61.646;24.704;2023-03-31T14:15:19;1.80;51.90
45715;DHT22;31430;61.646;24.704;2023-03-31T14:17:46;1.90;52.70
45715;DHT22;31430;61.646;24.704;2023-03-31T14:28:37;1.90;53.30
45715;DHT22;31430;61.646;24.704;2023-03-31T14:37:06;1.80;53.70
45715;DHT22;31430;61.646;24.704;2023-03-31T14:39:41;1.80;55.50
45715;DHT22;31430;61.646;24.704;2023-03-31T14:42:16;1.80;53.60
45715;DHT22;31430;61.646;24.704;2023-03-31T14:44:43;1.70;54.00
45715;DHT22;31430;61.646;24.704;2023-03-31T14:47:23;1.70;54.40
45715;DHT22;31430;61.646;24.704;2023-03-31T14:50:16;1.70;53.40
45715;DHT22;31430;61.646;24.704;2023-03-31T14:52:49;1.60;55.60
45715;DHT22;31430;61.646;24.704;2023-03-31T14:55:18;1.60;55.60
45715;DHT22;31430;61.646;24.704;2023-03-31T14:57:46;1.40;55.20
45715;DHT22;31430;61.646;24.704;2023-03-31T15:00:29;1.50;56.20
45715;DHT22;31430;61.646;24.704;2023-03-31T15:02:57;1.50;55.40
45715;DHT22;31430;61.646;24.704;2023-03-31T15:05:28;1.60;54.50
45715;DHT22;31430;61.646;24.704;2023-03-31T15:08:00;1.50;55.70
45715;DHT22;31430;61.646;24.704;2023-03-31T15:10:41;1.60;54.40
45715;DHT22;31430;61.646;24.704;2023-03-31T15:13:18;1.60;55.30
45715;DHT22;31430;61.646;24.704;2023-03-31T15:15:44;1.60;55.10
45715;DHT22;31430;61.646;24.704;2023-03-31T15:18:11;1.40;54.80
45715;DHT22;31430;61.646;24.704;2023-03-31T15:20:40;1.40;57.90
45715;DHT22;31430;61.646;24.704;2023-03-31T15:23:22;1.70;54.80
45715;DHT22;31430;61.646;24.704;2023-03-31T15:26:02;1.40;55.30
45715;DHT22;31430;61.646;24.704;2023-03-31T15:28:43;1.20;59.40
45715;DHT22;31430;61.646;24.704;2023-03-31T15:31:13;1.20;57.40
45715;DHT22;31430;61.646;24.704;2023-03-31T15:33:39;1.10;56.50
45715;DHT22;31430;61.646;24.704;2023-03-31T15:36:10;1.20;57.90
45715;DHT22;31430;61.646;24.704;2023-03-31T15:38:36;1.30;57.00
45715;DHT22;31430;61.646;24.704;2023-03-31T15:41:02;1.20;57.80
45715;DHT22;31430;61.646;24.704;2023-03-31T15:45:56;0.90;60.40
45715;DHT22;31430;61.646;24.704;2023-03-31T15:48:35;0.70;59.20
45715;DHT22;31430;61.646;24.704;2023-03-31T15:51:24;0.60;58.50
45715;DHT22;31430;61.646;24.704;2023-03-31T15:53:52;0.60;60.20
45715;DHT22;31430;61.646;24.704;2023-03-31T15:58:55;0.20;60.40
45715;DHT22;31430;61.646;24.704;2023-03-31T16:01:22;0.20;59.10
45715;DHT22;31430;61.646;24.704;2023-03-31T16:03:51;0.10;62.90
45715;DHT22;31430;61.646;24.704;2023-03-31T16:06:34;0.00;62.00
45715;DHT22;31430;61.646;24.704;2023-03-31T16:09:04;-0.10;63.60
45715;DHT22;31430;61.646;24.704;2023-03-31T16:11:47;-0.30;64.40
45715;DHT22;31430;61.646;24.704;2023-03-31T16:14:28;-0.50;67.30
45715;DHT22;31430;61.646;24.704;2023-03-31T16:17:08;-0.70;67.50
45715;DHT22;31430;61.646;24.704;2023-03-31T16:19:44;-1.00;68.80
45715;DHT22;31430;61.646;24.704;2023-03-31T16:22:20;-1.10;70.40
45715;DHT22;31430;61.646;24.704;2023-03-31T16:24:47;-1.40;69.00
45715;DHT22;31430;61.646;24.704;2023-03-31T16:27:14;-1.50;69.10
45715;DHT22;31430;61.646;24.704;2023-03-31T16:29:39;-1.60;71.20
45715;DHT22;31430;61.646;24.704;2023-03-31T16:32:15;-1.70;73.40
45715;DHT22;31430;61.646;24.704;2023-03-31T16:35:02;-2.00;73.80
45715;DHT22;31430;61.646;24.704;2023-03-31T16:37:28;-2.20;75.30
45715;DHT22;31430;61.646;24.704;2023-03-31T16:39:54;-2.30;75.40
45715;DHT22;31430;61.646;24.704;2023-03-31T16:42:20;-2.40;75.60
45715;DHT22;31430;61.646;24.704;2023-03-31T16:44:46;-2.60;76.80
45715;DHT22;31430;61.646;24.704;2023-03-31T16:47:12;-2.70;76.20
45715;DHT22;31430;61.646;24.704;2023-03-31T16:49:38;-2.90;78.00
45715;DHT22;31430;61.646;24.704;2023-03-31T16:52:03;-3.10;80.70
45715;DHT22;31430;61.646;24.704;2023-03-31T16:54:30;-3.30;80.60
45715;DHT22;31430;61.646;24.704;2023-03-31T16:56:56;-3.50;80.90
45715;DHT22;31430;61.646;24.704;2023-03-31T16:59:21;-3.60;81.20
45715;DHT22;31430;61.646;24.704;2023-03-31T17:01:47;-3.70;84.90
45715;DHT22;31430;61.646;24.704;2023-03-31T17:04:13;-3.80;84.50
45715;DHT22;31430;61.646;24.704;2023-03-31T17:06:39;-4.00;86.30
45715;DHT22;31430;61.646;24.704;2023-03-31T17:09:05;-4.20;88.00
45715;DHT22;31430;61.646;24.704;2023-03-31T17:11:30;-4.30;89.80
45715;DHT22;31430;61.646;24.704;2023-03-31T17:13:56;-4.40;90.00
45715;DHT22;31430;61.646;24.704;2023-03-31T17:16:24;-4.50;90.20
45715;DHT22;31430;61.646;24.704;2023-03-31T17:18:50;-4.70;92.60
45715;DHT22;31430;61.646;24.704;2023-03-31T17:21:18;-4.90;94.60
45715;DHT22;31430;61.646;24.704;2023-03-31T17:23:44;-5.00;95.50
45715;DHT22;31430;61.646;24.704;2023-03-31T17:26:13;-5.10;95.50
45715;DHT22;31430;61.646;24.704;2023-03-31T17:28:40;-5.30;95.30
45715;DHT22;31430;61.646;24.704;2023-03-31T17:31:11;-5.40;97.30
45715;DHT22;31430;61.646;24.704;2023-03-31T17:33:37;-5.50;98.60
45715;DHT22;31430;61.646;24.704;2023-03-31T17:36:03;-5.50;99.60
45715;DHT22;31430;61.646;24.704;2023-03-31T17:38:29;-5.70;99.90
45715;DHT22;31430;61.646;24.704;2023-03-31T17:40:54;-5.70;99.90
45715;DHT22;31430;61.646;24.704;2023-03-31T17:43:26;-5.80;99.90
45715;DHT22;31430;61.646;24.704;2023-03-31T17:46:02;-5.90;99.90
45715;DHT22;31430;61.646;24.704;2023-03-31T17:48:29;-5.90;99.90
45715;DHT22;31430;61.646;24.704;2023-03-31T17:50:55;-6.00;99.90
45715;DHT22;31430;61.646;24.704;2023-03-31T17:53:20;-6.20;99.90
45715;DHT22;31430;61.646;24.704;2023-03-31T17:55:46;-6.20;99.90
45715;DHT22;31430;61.646;24.704;2023-03-31T17:58:12;-6.40;99.90
45715;DHT22;31430;61.646;24.704;2023-03-31T18:00:39;-6.40;99.90
45715;DHT22;31430;61.646;24.704;2023-03-31T18:03:04;-6.50;99.90
45715;DHT22;31430;61.646;24.704;2023-03-31T18:05:30;-6.60;99.90
45715;DHT22;31430;61.646;24.704;2023-03-31T18:07:58;-6.70;99.90
45715;DHT22;31430;61.646;24.704;2023-03-31T18:10:23;-6.80;99.90
45715;DHT22;31430;61.646;24.704;2023-03-31T18:12:50;-6.80;99.90
45715;DHT22;31430;61.646;24.704;2023-03-31T18:15:16;-6.90;99.90
45715;DHT22;31430;61.646;24.704;2023-03-31T18:17:41;-7.00;99.90
45715;DHT22;31430;61.646;24.704;2023-03-31T18:20:08;-7.00;99.90
45715;DHT22;31430;61.646;24.704;2023-03-31T18:22:34;-7.10;99.90
45715;DHT22;31430;61.646;24.704;2023-03-31T18:25:00;-7.30;99.90
45715;DHT22;31430;61.646;24.704;2023-03-31T18:27:25;-7.30;99.90
45715;DHT22;31430;61.646;24.704;2023-03-31T18:29:51;-7.30;99.90
45715;DHT22;31430;61.646;24.704;2023-03-31T18:32:17;-7.40;99.90
45715;DHT22;31430;61.646;24.704;2023-03-31T18:34:43;-7.60;99.90